Time;durP1;ratioP1;P1;durP2;ratioP2;P2;SDS_P1;SDS_P2;PMS_P1;PMS_P2;Temp;Humidity;BMP_temperature;BMP_pressure;BME280_temperature;BME280_humidity;BME280_pressure;Samples;Min_cycle;Max_cycle;Signal;HPM_P1;HPM_P2
2023/09/16 00:01:33;;;;;;;1.67;1.57;;;;;;;21.79;60.71;96502.72;10413450;28;20038;-26
2023/09/16 00:06:33;;;;;;;1.75;1.65;;;;;;;21.79;60.55;96499.31;10413594;28;20295;-25
2023/09/16 00:11:34;;;;;;;2.83;1.90;;;;;;;21.80;60.55;96501.84;10411775;28;20050;-26
2023/09/16 00:16:34;;;;;;;1.73;1.63;;;;;;;21.79;60.72;96506.94;10412256;28;20094;-26
2023/09/16 00:21:35;;;;;;;1.67;1.40;;;;;;;21.80;60.59;96514.59;10413102;28;20694;-26
2023/09/16 00:26:35;;;;;;;1.50;1.40;;;;;;;21.78;60.56;96500.19;10407021;28;20418;-26
2023/09/16 00:31:36;;;;;;;2.00;1.80;;;;;;;21.79;60.60;96507.81;10411780;28;20038;-27
2023/09/16 00:36:36;;;;;;;2.28;1.77;;;;;;;21.80;60.69;96509.47;10412192;28;20029;-26
2023/09/16 00:41:37;;;;;;;1.67;1.57;;;;;;;21.80;60.60;96508.66;10407157;28;20044;-26
2023/09/16 00:46:38;;;;;;;1.50;1.33;;;;;;;21.78;60.63;96508.69;10410262;28;21636;-26
2023/09/16 00:51:41;;;;;;;1.70;1.60;;;;;;;21.79;60.63;96520.53;10412298;28;20079;-26
2023/09/16 00:56:42;;;;;;;1.65;1.55;;;;;;;21.79;60.52;96519.69;10404661;28;20060;-26
2023/09/16 01:01:44;;;;;;;2.50;1.80;;;;;;;21.79;60.60;96518.00;10408999;28;20056;-26
2023/09/16 01:06:47;;;;;;;1.90;1.80;;;;;;;21.80;60.65;96518.84;10408268;28;20061;-27
2023/09/16 01:11:49;;;;;;;2.85;2.65;;;;;;;21.79;60.60;96523.09;10407012;28;20036;-25
2023/09/16 01:16:59;;;;;;;5.28;3.03;;;;;;;21.80;60.83;96514.59;10405507;28;20040;-26
2023/09/16 01:22:01;;;;;;;1.70;1.45;;;;;;;21.80;60.63;96523.94;10403713;28;20480;-26
2023/09/16 01:27:01;;;;;;;2.17;1.98;;;;;;;21.79;60.29;96522.25;10404975;28;20029;-25
2023/09/16 01:32:05;;;;;;;1.58;1.48;;;;;;;21.78;60.71;96512.91;10408976;28;20399;-25
2023/09/16 01:37:11;;;;;;;2.10;1.95;;;;;;;21.79;60.52;96519.69;10410554;28;20033;-26
2023/09/16 01:42:11;;;;;;;1.38;1.27;;;;;;;21.78;60.57;96526.50;10408811;28;20117;-26
2023/09/16 01:47:12;;;;;;;1.77;1.67;;;;;;;21.76;60.55;96525.69;10399201;28;20025;-26
2023/09/16 01:52:12;;;;;;;1.63;1.50;;;;;;;21.77;60.43;96519.75;10408010;28;20044;-26
2023/09/16 01:57:14;;;;;;;1.50;1.40;;;;;;;21.76;60.49;96518.06;10407769;28;20032;-25
2023/09/16 02:02:14;;;;;;;1.35;1.23;;;;;;;21.76;60.44;96512.09;10405727;28;20041;-26
2023/09/16 02:07:14;;;;;;;1.37;1.27;;;;;;;21.76;60.52;96518.06;10405211;28;20041;-26
2023/09/16 02:12:15;;;;;;;1.57;1.47;;;;;;;21.76;60.52;96517.22;10407476;28;20037;-25
2023/09/16 02:17:16;;;;;;;1.50;1.40;;;;;;;21.77;60.47;96519.75;10404208;28;20292;-26
2023/09/16 02:22:17;;;;;;;1.98;1.67;;;;;;;21.76;60.44;96515.50;10407469;28;20029;-26
2023/09/16 02:27:17;;;;;;;1.40;1.30;;;;;;;21.76;60.36;96517.22;10402604;28;20386;-26
2023/09/16 02:32:18;;;;;;;1.97;1.50;;;;;;;21.75;60.44;96506.19;10403874;28;20041;-26
2023/09/16 02:37:20;;;;;;;1.37;1.27;;;;;;;21.76;60.35;96507.88;10408214;28;20033;-26
2023/09/16 02:42:20;;;;;;;2.03;1.52;;;;;;;21.75;60.34;96516.38;10404904;28;20411;-25
2023/09/16 02:47:21;;;;;;;1.57;1.47;;;;;;;21.76;60.50;96505.31;10398407;28;20029;-26
2023/09/16 02:52:21;;;;;;;1.67;1.58;;;;;;;21.75;60.49;96506.19;10406310;28;20812;-26
2023/09/16 02:57:22;;;;;;;1.57;1.47;;;;;;;21.75;60.33;96507.88;10406562;28;20030;-26
2023/09/16 03:02:22;;;;;;;1.60;1.50;;;;;;;21.74;60.46;96496.84;10403882;28;20298;-26
2023/09/16 03:07:23;;;;;;;1.60;1.50;;;;;;;21.71;60.53;96502.00;10404941;28;20418;-26
2023/09/16 03:12:24;;;;;;;1.70;1.50;;;;;;;21.75;60.31;96497.69;10406037;28;20034;-27
2023/09/16 03:17:25;;;;;;;1.30;1.20;;;;;;;21.74;60.47;96496.84;10404407;28;20465;-26
2023/09/16 03:22:25;;;;;;;2.08;1.90;;;;;;;21.76;60.52;96492.56;10407298;28;20047;-26
2023/09/16 03:27:28;;;;;;;1.60;1.50;;;;;;;21.75;60.44;96495.13;10400789;28;20021;-26
2023/09/16 03:32:29;;;;;;;1.70;1.60;;;;;;;21.74;60.44;96493.47;10411159;28;20084;-26
2023/09/16 03:37:30;;;;;;;3.25;1.95;;;;;;;21.74;60.30;96479.00;10413517;28;20124;-26
2023/09/16 03:42:34;;;;;;;2.42;2.20;;;;;;;21.76;60.42;96477.28;10412124;28;20095;-26
2023/09/16 03:47:35;;;;;;;1.88;1.77;;;;;;;21.76;60.45;96462.00;10407025;28;20077;-26
2023/09/16 03:52:36;;;;;;;1.30;1.20;;;;;;;21.75;60.23;96465.41;10412849;28;20048;-26
2023/09/16 03:57:37;;;;;;;1.67;1.58;;;;;;;21.74;60.23;96456.06;10411279;28;20033;-25
2023/09/16 04:02:39;;;;;;;1.52;1.42;;;;;;;21.74;60.21;96456.06;10409266;28;20044;-26
2023/09/16 04:07:39;;;;;;;2.70;1.33;;;;;;;21.72;60.29;96455.25;10413594;28;20026;-26
2023/09/16 04:12:42;;;;;;;1.67;1.58;;;;;;;21.73;60.39;96444.19;10411698;28;20033;-26
2023/09/16 04:17:42;;;;;;;3.27;1.87;;;;;;;21.73;60.52;96451.84;10410001;28;20488;-25
2023/09/16 04:22:42;;;;;;;1.40;1.30;;;;;;;21.74;60.34;96443.31;10411413;28;20288;-26
2023/09/16 04:27:43;;;;;;;1.50;1.40;;;;;;;21.74;60.20;96427.22;10408087;28;20061;-28
2023/09/16 04:32:43;;;;;;;3.00;1.60;;;;;;;21.74;60.57;96437.41;10407687;28;20328;-27
2023/09/16 04:37:44;;;;;;;3.67;2.43;;;;;;;21.82;61.43;96430.47;10410369;28;20109;-26
2023/09/16 04:42:44;;;;;;;1.87;1.77;;;;;;;21.76;60.69;96426.31;10409936;28;20291;-26
2023/09/16 04:47:47;;;;;;;2.13;1.92;;;;;;;21.75;60.36;96423.78;10405877;28;20033;-25
2023/09/16 04:52:48;;;;;;;1.80;1.70;;;;;;;21.74;60.30;96422.09;10409017;28;20060;-26
2023/09/16 04:57:49;;;;;;;5.10;2.35;;;;;;;21.75;60.37;96417.00;10409784;28;20079;-25
2023/09/16 05:02:50;;;;;;;6.53;2.75;;;;;;;21.71;60.78;96407.72;10404693;28;20036;-25
2023/09/16 05:07:51;;;;;;;4.47;2.38;;;;;;;21.64;60.90;96395.91;10405007;28;20072;-26
2023/09/16 05:12:52;;;;;;;2.80;2.08;;;;;;;21.55;60.67;96398.63;10408432;28;20045;-26
2023/09/16 05:17:53;;;;;;;2.58;2.35;;;;;;;21.49;59.77;96396.16;10408032;28;20032;-26
2023/09/16 05:22:54;;;;;;;4.90;2.20;;;;;;;21.54;59.64;96394.38;10409218;28;20033;-26
2023/09/16 05:27:58;;;;;;;5.32;2.30;;;;;;;21.60;59.55;96396.84;10405829;28;20076;-25
2023/09/16 05:32:58;;;;;;;6.82;2.65;;;;;;;21.67;59.97;96395.91;10404361;28;20040;-26
2023/09/16 05:37:59;;;;;;;16.42;3.03;;;;;;;21.71;60.18;96399.25;10405967;28;20041;-26
2023/09/16 05:42:59;;;;;;;4.93;1.80;;;;;;;21.67;59.64;96410.34;10400072;28;20111;-26
2023/09/16 05:48:02;;;;;;;5.82;2.45;;;;;;;21.67;60.18;96410.34;10394191;28;20128;-27
2023/09/16 05:53:05;;;;;;;6.40;2.03;;;;;;;21.76;59.99;96411.03;10405414;28;20118;-26
2023/09/16 05:58:07;;;;;;;4.27;2.90;;;;;;;21.78;60.27;96410.97;10403146;28;20074;-26
2023/09/16 06:03:09;;;;;;;7.03;1.98;;;;;;;21.79;60.09;96413.50;10402192;28;20287;-25
2023/09/16 06:08:10;;;;;;;2.28;1.90;;;;;;;21.81;60.03;96416.88;10408872;28;20048;-26
2023/09/16 06:13:10;;;;;;;3.90;1.90;;;;;;;21.82;60.17;96423.63;10407622;28;20061;-27
2023/09/16 06:18:11;;;;;;;2.67;2.10;;;;;;;21.82;60.07;96421.09;10406507;28;20488;-26
2023/09/16 06:23:12;;;;;;;2.80;1.90;;;;;;;21.82;60.07;96421.09;10407022;28;20059;-26
2023/09/16 06:28:12;;;;;;;3.08;1.90;;;;;;;21.83;60.32;96433.00;10405992;28;20025;-26
2023/09/16 06:33:13;;;;;;;2.55;2.10;;;;;;;21.82;60.28;96430.47;10401808;28;20530;-26
2023/09/16 06:38:14;;;;;;;3.95;2.35;;;;;;;21.81;60.45;96434.69;10408409;28;20025;-26
2023/09/16 06:43:15;;;;;;;2.67;1.70;;;;;;;21.80;60.42;96422.84;10404063;28;20399;-25
2023/09/16 06:48:18;;;;;;;1.90;1.70;;;;;;;21.83;60.39;96427.03;10403077;28;20024;-26
2023/09/16 06:53:18;;;;;;;3.10;1.70;;;;;;;21.81;60.43;96432.16;10407896;28;20411;-27
2023/09/16 06:58:20;;;;;;;1.92;1.73;;;;;;;21.80;60.22;96429.66;10402408;28;20115;-27
2023/09/16 07:03:21;;;;;;;2.28;1.80;;;;;;;21.79;60.20;96431.34;10408986;28;20083;-26
2023/09/16 07:08:24;;;;;;;2.60;2.13;;;;;;;21.80;60.58;96437.31;10415941;28;20030;-26
2023/09/16 07:13:24;;;;;;;2.97;1.80;;;;;;;21.77;60.48;96427.13;10411547;28;20142;-25
2023/09/16 07:18:24;;;;;;;3.03;1.80;;;;;;;21.81;60.52;96439.81;10410796;28;20116;-26
2023/09/16 07:23:25;;;;;;;2.70;1.40;;;;;;;21.81;60.54;96442.34;10414930;28;20033;-26
2023/09/16 07:28:27;;;;;;;2.57;2.17;;;;;;;21.80;60.31;96438.13;10411552;28;20036;-26
2023/09/16 07:33:28;;;;;;;2.50;1.90;;;;;;;21.79;60.39;96449.19;10409380;28;20076;-26
2023/09/16 07:38:28;;;;;;;1.90;1.77;;;;;;;21.80;60.53;96453.41;10413281;28;20029;-25
2023/09/16 07:43:28;;;;;;;1.83;1.73;;;;;;;21.80;60.60;96450.88;10414457;28;20333;-26
2023/09/16 07:48:29;;;;;;;2.57;1.87;;;;;;;21.82;60.39;96461.88;10409109;28;20302;-26
2023/09/16 07:53:29;;;;;;;1.70;1.60;;;;;;;21.81;60.59;96465.28;10414125;28;20037;-26
2023/09/16 07:58:29;;;;;;;1.83;1.73;;;;;;;21.81;60.58;96467.84;10410996;28;20040;-26
2023/09/16 08:03:31;;;;;;;4.03;1.80;;;;;;;21.82;60.38;96466.97;10410030;28;20033;-26
2023/09/16 08:08:32;;;;;;;2.97;1.63;;;;;;;21.82;60.55;96474.63;10410369;28;20033;-26
2023/09/16 08:13:33;;;;;;;1.90;1.70;;;;;;;21.83;60.54;96468.69;10412242;28;20049;-27
2023/09/16 08:18:33;;;;;;;1.70;1.60;;;;;;;21.81;60.47;96470.38;10408327;28;20280;-26
2023/09/16 08:23:34;;;;;;;1.70;1.60;;;;;;;21.82;60.53;96472.06;10409317;28;20508;-26
2023/09/16 08:28:35;;;;;;;1.83;1.57;;;;;;;21.82;60.44;96476.34;10413338;28;20060;-26
2023/09/16 08:33:36;;;;;;;2.08;1.58;;;;;;;21.82;60.33;96477.16;10406892;28;20045;-26
2023/09/16 08:38:36;;;;;;;1.30;1.20;;;;;;;21.82;60.59;96479.72;10410034;28;20029;-25
2023/09/16 08:43:39;;;;;;;1.90;1.70;;;;;;;21.82;60.68;96482.25;10409733;28;20037;-26
2023/09/16 08:48:41;;;;;;;1.88;1.23;;;;;;;21.83;60.58;96489.06;10406420;28;20865;-26
2023/09/16 08:53:43;;;;;;;1.83;1.55;;;;;;;21.83;60.56;96494.16;10411825;28;20037;-26
2023/09/16 08:58:44;;;;;;;1.70;1.50;;;;;;;21.82;60.46;96494.19;10406162;28;20095;-26
2023/09/16 09:03:45;;;;;;;1.50;1.40;;;;;;;21.83;60.66;96489.06;10407144;28;20045;-26
2023/09/16 09:08:45;;;;;;;1.80;1.70;;;;;;;21.83;60.41;96494.16;10410415;28;20033;-26
2023/09/16 09:13:46;;;;;;;1.40;1.30;;;;;;;21.84;60.49;96492.44;10409697;28;20049;-28
2023/09/16 09:18:49;;;;;;;1.88;1.48;;;;;;;21.84;60.80;96500.94;10409942;28;20295;-25
2023/09/16 09:23:50;;;;;;;1.40;1.30;;;;;;;21.83;60.66;96493.31;10409707;28;21355;-26
2023/09/16 09:28:50;;;;;;;1.57;1.37;;;;;;;21.83;60.56;96490.75;10408871;28;20046;-26
2023/09/16 09:33:51;;;;;;;1.50;1.40;;;;;;;21.83;60.42;96494.16;10403970;28;20716;-26
2023/09/16 09:38:51;;;;;;;2.05;1.40;;;;;;;21.83;60.64;96494.16;10409482;28;20098;-27
2023/09/16 09:43:53;;;;;;;1.55;1.45;;;;;;;21.79;60.60;96487.41;10408929;28;20450;-26
2023/09/16 09:48:54;;;;;;;1.15;1.05;;;;;;;21.83;60.43;96494.16;10403497;28;20033;-25
2023/09/16 09:53:54;;;;;;;1.60;1.50;;;;;;;21.83;60.63;96496.72;10408394;28;20610;-27
2023/09/16 09:58:55;;;;;;;1.37;1.10;;;;;;;21.82;60.75;96492.44;10409227;28;20033;-26
2023/09/16 10:03:55;;;;;;;1.27;1.17;;;;;;;21.82;60.50;96497.53;10404636;28;20778;-26
2023/09/16 10:08:55;;;;;;;1.50;1.40;;;;;;;21.82;60.67;96497.53;10408141;28;20045;-26
2023/09/16 10:13:56;;;;;;;1.50;1.40;;;;;;;21.80;60.56;96493.38;10407553;28;20292;-26
2023/09/16 10:18:57;;;;;;;1.15;1.10;;;;;;;21.81;60.70;96493.31;10407943;28;20053;-26
2023/09/16 10:23:57;;;;;;;1.30;1.20;;;;;;;21.80;60.61;96494.19;10408515;28;20041;-26
2023/09/16 10:28:58;;;;;;;1.23;1.13;;;;;;;21.80;60.78;96499.28;10407311;28;20108;-26
2023/09/16 10:34:00;;;;;;;1.90;1.40;;;;;;;21.81;60.70;96489.94;10401718;28;20514;-27
2023/09/16 10:39:01;;;;;;;1.50;1.40;;;;;;;21.81;60.71;96489.94;10404751;28;20476;-26
2023/09/16 10:44:03;;;;;;;1.10;0.98;;;;;;;21.80;60.54;96484.00;10407940;28;20104;-26
2023/09/16 10:49:05;;;;;;;1.50;1.40;;;;;;;21.79;60.96;96471.28;10401196;28;20049;-26
2023/09/16 10:54:29;;;;;;;2.37;1.20;;;;;;;21.80;60.60;96463.59;10405771;28;20491;-26
2023/09/16 10:59:31;;;;;;;1.30;1.20;;;;;;;21.80;60.63;96461.06;10402860;28;20060;-27
2023/09/16 11:04:32;;;;;;;1.45;1.35;;;;;;;21.80;60.54;96455.13;10403031;28;20515;-26
2023/09/16 11:09:32;;;;;;;1.40;1.30;;;;;;;21.79;60.68;96441.53;10404745;28;20095;-26
2023/09/16 11:14:33;;;;;;;1.77;1.30;;;;;;;21.80;60.64;96450.88;10406958;28;20034;-26
2023/09/16 11:19:35;;;;;;;1.10;1.00;;;;;;;21.79;60.64;96445.78;10400476;28;20354;-26
2023/09/16 11:24:36;;;;;;;1.00;1.00;;;;;;;21.80;60.58;96437.31;10400660;28;20434;-26
2023/09/16 11:29:37;;;;;;;1.50;1.20;;;;;;;21.80;60.59;96427.94;10408114;28;20040;-26
2023/09/16 11:34:37;;;;;;;1.20;1.10;;;;;;;21.80;60.83;96416.91;10399805;28;20025;-27
2023/09/16 11:39:42;;;;;;;1.42;1.33;;;;;;;21.79;60.65;96420.31;10403629;28;20384;-25
2023/09/16 11:44:42;;;;;;;1.45;1.25;;;;;;;21.80;60.82;96420.28;10406468;28;20469;-27
2023/09/16 11:49:43;;;;;;;1.27;1.17;;;;;;;21.80;60.78;96414.38;10403182;28;20045;-26
2023/09/16 11:54:46;;;;;;;1.07;1.03;;;;;;;21.80;60.77;96411.81;10414264;28;20080;-26
2023/09/16 11:59:48;;;;;;;1.13;1.02;;;;;;;21.80;60.92;96417.72;10412537;28;20029;-26
2023/09/16 12:04:48;;;;;;;0.90;0.90;;;;;;;21.81;60.67;96414.31;10409489;28;20068;-25
2023/09/16 12:09:50;;;;;;;1.15;1.05;;;;;;;21.80;60.76;96407.53;10412345;28;20124;-26
2023/09/16 12:14:51;;;;;;;1.15;1.05;;;;;;;21.79;60.79;96398.22;10410401;28;20068;-26
2023/09/16 12:19:54;;;;;;;1.30;1.20;;;;;;;21.80;61.14;96399.91;10405561;28;20171;-26
2023/09/16 12:24:54;;;;;;;1.50;1.23;;;;;;;21.80;60.92;96407.53;10408493;28;20037;-26
2023/09/16 12:29:55;;;;;;;1.27;1.10;;;;;;;21.81;60.96;96408.41;10411992;28;20033;-26
2023/09/16 12:35:05;;;;;;;0.88;0.88;;;;;;;21.80;61.11;96412.63;10404448;28;20033;-26
2023/09/16 12:40:06;;;;;;;1.15;1.13;;;;;;;21.81;61.06;96418.59;10408939;28;20044;-26
2023/09/16 12:45:07;;;;;;;0.90;0.90;;;;;;;21.80;60.89;96416.91;10411915;28;20503;-26
2023/09/16 12:50:08;;;;;;;1.50;1.40;;;;;;;21.80;60.71;96422.84;10404429;28;20060;-26
2023/09/16 12:55:14;;;;;;;1.35;1.25;;;;;;;21.79;60.90;96416.06;10407915;28;20029;-26
2023/09/16 13:00:20;;;;;;;1.20;1.10;;;;;;;21.80;61.13;96425.38;10411504;28;20040;-26
2023/09/16 13:05:27;;;;;;;1.48;1.00;;;;;;;21.80;61.04;96427.09;10408016;28;20164;-26
2023/09/16 13:10:28;;;;;;;1.23;1.02;;;;;;;21.80;60.97;96433.03;10407249;28;20036;-26
2023/09/16 13:15:29;;;;;;;1.23;1.13;;;;;;;21.81;60.97;96438.97;10408422;28;20029;-26
2023/09/16 13:20:36;;;;;;;1.10;1.00;;;;;;;21.79;61.05;96431.34;10404575;28;20044;-28
2023/09/16 13:25:40;;;;;;;1.10;0.85;;;;;;;21.79;60.90;96436.44;10408760;28;20534;-25
2023/09/16 13:30:42;;;;;;;1.10;1.00;;;;;;;21.79;61.06;96446.63;10407377;28;20033;-25
2023/09/16 13:35:44;;;;;;;0.90;0.90;;;;;;;21.80;61.07;96448.31;10406103;28;20025;-26
2023/09/16 13:40:50;;;;;;;1.00;0.90;;;;;;;21.81;60.91;96451.72;10407236;28;20034;-26
2023/09/16 13:45:51;;;;;;;;;;;;;;;21.79;61.15;96444.09;10408940;28;20061;-26
2023/09/16 13:50:52;;;;;;;1.17;0.95;;;;;;;21.72;61.17;96418.75;10409851;28;19967;-26
2023/09/16 13:55:54;;;;;;;1.17;1.08;;;;;;;21.79;61.13;96435.59;10405561;28;20403;-26
2023/09/16 14:00:54;;;;;;;1.40;1.30;;;;;;;21.78;61.07;96439.88;10408810;28;20060;-25
2023/09/16 14:05:55;;;;;;;1.50;1.20;;;;;;;21.79;61.16;96443.25;10409448;28;20453;-26
2023/09/16 14:10:55;;;;;;;1.17;1.07;;;;;;;21.79;61.21;96450.88;10402933;28;20418;-26
2023/09/16 14:15:56;;;;;;;0.95;0.93;;;;;;;21.79;61.23;96454.28;10407375;28;20030;-26
2023/09/16 14:20:56;;;;;;;1.93;1.40;;;;;;;21.78;61.21;96454.31;10409070;28;20037;-26
2023/09/16 14:26:00;;;;;;;1.10;1.10;;;;;;;21.79;61.00;96459.38;10404365;28;20042;-26
2023/09/16 14:31:07;;;;;;;0.93;0.93;;;;;;;21.78;61.07;96455.16;10407351;28;20291;-26
2023/09/16 14:36:08;;;;;;;1.10;1.00;;;;;;;21.78;61.23;96455.16;10408315;28;20553;-26
2023/09/16 14:41:08;;;;;;;1.33;1.23;;;;;;;21.80;61.26;96448.31;10406972;28;20037;-26
2023/09/16 14:46:08;;;;;;;1.67;1.30;;;;;;;21.76;61.10;96440.75;10406360;28;20033;-26
2023/09/16 14:51:09;;;;;;;0.83;0.83;;;;;;;21.78;61.08;96433.91;10407820;28;20849;-25
2023/09/16 14:56:10;;;;;;;1.30;1.20;;;;;;;21.78;61.40;96434.78;10402448;28;20040;-26
2023/09/16 15:01:11;;;;;;;1.40;1.30;;;;;;;21.77;61.22;96438.19;10405970;28;20487;-26
2023/09/16 15:06:12;;;;;;;1.55;1.20;;;;;;;21.77;61.15;96428.00;10407356;28;20059;-26
2023/09/16 15:11:13;;;;;;;0.80;0.80;;;;;;;21.79;61.04;96436.44;10406331;28;20086;-26
2023/09/16 15:16:14;;;;;;;1.02;1.02;;;;;;;21.79;61.05;96438.13;10405408;28;20645;-26
2023/09/16 15:21:15;;;;;;;0.95;0.90;;;;;;;21.76;61.42;96425.47;10407777;28;20435;-26
2023/09/16 15:26:16;;;;;;;1.10;1.00;;;;;;;21.79;61.20;96431.34;10411226;28;20095;-26
2023/09/16 15:31:17;;;;;;;1.30;1.20;;;;;;;21.79;61.13;96431.34;10413078;28;20511;-26
2023/09/16 15:36:18;;;;;;;1.15;1.05;;;;;;;21.79;61.43;96438.13;10414909;28;20037;-27
2023/09/16 15:41:18;;;;;;;1.05;0.98;;;;;;;21.78;61.22;96447.50;10413797;28;20036;-26
2023/09/16 15:46:19;;;;;;;0.97;0.93;;;;;;;21.79;61.16;96450.88;10412432;28;20036;-26
2023/09/16 15:51:19;;;;;;;0.93;0.93;;;;;;;21.78;61.23;96452.59;10413074;28;20264;-26
2023/09/16 15:56:19;;;;;;;1.20;1.07;;;;;;;21.79;61.15;96454.28;10409959;28;20059;-26
2023/09/16 16:01:21;;;;;;;0.90;0.90;;;;;;;21.80;61.13;96458.50;10405683;28;20033;-26
2023/09/16 16:06:21;;;;;;;1.20;1.10;;;;;;;21.79;61.50;96467.03;10412130;28;20296;-25
2023/09/16 16:11:22;;;;;;;2.30;0.90;;;;;;;21.80;61.26;96478.06;10411663;28;20037;-26
2023/09/16 16:16:23;;;;;;;0.98;0.90;;;;;;;21.78;61.22;96478.09;10411825;28;20030;-26
2023/09/16 16:21:24;;;;;;;1.08;0.98;;;;;;;21.79;61.27;96477.22;10403980;28;20029;-26
2023/09/16 16:26:24;;;;;;;1.10;1.00;;;;;;;21.80;61.26;96478.91;10405920;28;20506;-26
2023/09/16 16:31:24;;;;;;;1.55;1.00;;;;;;;21.83;61.15;96471.22;10409295;28;20027;-26
2023/09/16 16:36:25;;;;;;;3.80;1.87;;;;;;;21.94;64.34;96460.81;10406581;28;20052;-26
2023/09/16 16:41:25;;;;;;;2.20;1.30;;;;;;;21.89;61.37;96460.06;10402946;28;20297;-26
2023/09/16 16:46:26;;;;;;;1.10;1.00;;;;;;;21.86;61.15;96460.97;10410079;28;20084;-26
2023/09/16 16:51:26;;;;;;;5.95;1.23;;;;;;;21.85;61.32;96472.03;10409027;28;20034;-25
2023/09/16 16:56:26;;;;;;;1.10;0.90;;;;;;;21.85;61.34;96486.47;10407324;28;20431;-26
2023/09/16 17:01:27;;;;;;;4.87;0.87;;;;;;;21.83;61.28;96473.78;10404834;28;20399;-26
2023/09/16 17:06:28;;;;;;;1.67;1.23;;;;;;;21.84;61.29;96469.50;10407421;28;20037;-26
2023/09/16 17:11:28;;;;;;;1.70;1.00;;;;;;;21.82;61.19;96477.16;10406189;28;20029;-27
2023/09/16 17:16:31;;;;;;;1.00;0.90;;;;;;;21.68;61.25;96458.72;10408539;28;20059;-25
2023/09/16 17:21:32;;;;;;;1.17;1.08;;;;;;;21.81;61.17;96475.47;10410798;28;20041;-26
2023/09/16 17:26:32;;;;;;;1.50;1.10;;;;;;;21.81;61.12;96459.38;10410044;28;20385;-25
2023/09/16 17:31:33;;;;;;;2.40;1.23;;;;;;;21.79;61.29;96461.06;10407449;28;20322;-27
2023/09/16 17:36:33;;;;;;;1.10;0.90;;;;;;;21.80;61.27;96450.88;10410398;28;20662;-26
2023/09/16 17:41:35;;;;;;;2.70;1.00;;;;;;;21.80;61.15;96458.50;10408406;28;20135;-26
2023/09/16 17:46:36;;;;;;;1.00;0.90;;;;;;;21.79;61.21;96454.28;10405049;28;20374;-25
2023/09/16 17:51:36;;;;;;;1.07;0.90;;;;;;;21.80;61.07;96462.78;10410062;28;20090;-26
2023/09/16 17:56:36;;;;;;;0.93;0.90;;;;;;;21.75;61.23;96462.88;10406901;28;20045;-25
2023/09/16 18:01:37;;;;;;;1.77;0.90;;;;;;;21.75;61.09;96465.41;10405664;28;20053;-25
2023/09/16 18:06:37;;;;;;;0.90;0.90;;;;;;;21.79;61.19;96479.78;10406103;28;20124;-26
2023/09/16 18:11:38;;;;;;;3.80;1.65;;;;;;;21.78;63.05;96480.66;10404749;28;20069;-26
2023/09/16 18:16:39;;;;;;;2.78;1.30;;;;;;;21.80;61.37;96491.66;10397408;28;20041;-26
2023/09/16 18:21:39;;;;;;;1.17;1.10;;;;;;;21.80;61.29;96498.47;10404490;28;20550;-26
2023/09/16 18:26:40;;;;;;;1.20;1.10;;;;;;;21.79;61.24;96502.72;10401118;28;20415;-27
2023/09/16 18:31:40;;;;;;;1.50;0.90;;;;;;;21.79;61.13;96504.41;10400101;28;20303;-25
2023/09/16 18:36:41;;;;;;;1.30;1.20;;;;;;;21.78;61.21;96511.22;10403923;28;20037;-25
2023/09/16 18:41:42;;;;;;;1.45;1.10;;;;;;;21.79;61.17;96523.09;10401914;28;20303;-26
2023/09/16 18:46:45;;;;;;;1.15;0.98;;;;;;;21.79;61.27;96524.78;10399574;28;20051;-25
2023/09/16 18:51:45;;;;;;;1.67;1.58;;;;;;;21.78;61.74;96525.66;10399877;28;20042;-26
2023/09/16 18:56:45;;;;;;;1.42;1.33;;;;;;;21.78;61.17;96520.56;10402081;28;20037;-26
2023/09/16 19:01:46;;;;;;;1.53;0.77;;;;;;;21.78;61.06;96516.31;10399297;28;20053;-26
2023/09/16 19:06:46;;;;;;;1.20;0.90;;;;;;;21.78;60.96;96515.47;10403400;28;20300;-26
2023/09/16 19:11:47;;;;;;;1.10;1.00;;;;;;;21.77;61.03;96514.63;10402397;28;20042;-26
2023/09/16 19:16:47;;;;;;;1.27;1.17;;;;;;;21.77;61.10;96524.84;10402118;28;20291;-26
2023/09/16 19:21:48;;;;;;;1.00;0.80;;;;;;;21.77;61.00;96524.84;10403275;28;20515;-26
2023/09/16 19:26:48;;;;;;;1.73;0.90;;;;;;;21.78;61.05;96526.50;10399662;28;20037;-26
2023/09/16 19:31:50;;;;;;;1.40;1.20;;;;;;;21.78;61.07;96526.50;10398667;28;20045;-26
2023/09/16 19:36:51;;;;;;;1.38;1.05;;;;;;;21.79;61.20;96537.53;10403090;28;20288;-26
2023/09/16 19:41:52;;;;;;;1.23;1.13;;;;;;;21.77;61.07;96526.53;10402697;28;20065;-26
2023/09/16 19:46:52;;;;;;;1.30;1.20;;;;;;;21.77;61.17;96527.38;10398821;28;20159;-25
2023/09/16 19:51:53;;;;;;;0.70;0.70;;;;;;;21.77;60.95;96523.97;10403525;28;20098;-30
2023/09/16 19:56:54;;;;;;;1.27;1.17;;;;;;;21.71;60.98;96507.09;10401968;28;20037;-26
2023/09/16 20:01:54;;;;;;;1.53;1.00;;;;;;;21.77;61.18;96518.88;10398356;28;20506;-26
2023/09/16 20:06:56;;;;;;;1.17;1.07;;;;;;;21.76;61.00;96512.97;10402537;28;20240;-26
2023/09/16 20:11:58;;;;;;;0.90;0.90;;;;;;;21.75;60.88;96511.28;10405500;28;20047;-26
2023/09/16 20:16:58;;;;;;;1.58;0.70;;;;;;;21.76;61.04;96507.88;10404564;28;20044;-26
2023/09/16 20:21:58;;;;;;;1.40;1.17;;;;;;;21.76;61.08;96512.97;10409474;28;20049;-26
2023/09/16 20:27:00;;;;;;;0.83;0.53;;;;;;;21.76;61.14;96512.97;10403860;28;20072;-26
2023/09/16 20:32:01;;;;;;;1.33;1.02;;;;;;;21.76;61.21;96518.06;10403865;28;20128;-28
2023/09/16 20:37:02;;;;;;;1.00;0.90;;;;;;;21.76;61.16;96512.09;10409045;28;20033;-26
2023/09/16 20:42:03;;;;;;;0.80;0.80;;;;;;;21.77;61.17;96519.75;10407622;28;20053;-25
2023/09/16 20:47:04;;;;;;;0.90;0.80;;;;;;;21.76;61.16;96528.25;10402912;28;20104;-27
2023/09/16 20:52:04;;;;;;;1.00;0.90;;;;;;;21.75;61.55;96521.47;10408227;28;20052;-26
2023/09/16 20:57:07;;;;;;;1.23;1.13;;;;;;;21.75;61.25;96524.03;10406820;28;20041;-25
2023/09/16 21:02:07;;;;;;;0.88;0.88;;;;;;;21.74;61.05;96517.22;10403136;28;20033;-26
2023/09/16 21:07:08;;;;;;;1.27;0.70;;;;;;;21.77;60.96;96516.34;10409278;28;20060;-26
2023/09/16 21:12:08;;;;;;;0.80;0.80;;;;;;;21.76;61.04;96520.59;10410884;28;20472;-26
2023/09/16 21:17:09;;;;;;;1.02;0.98;;;;;;;21.75;61.06;96521.47;10405893;28;20116;-26
2023/09/16 21:22:09;;;;;;;1.00;0.90;;;;;;;21.76;61.00;96533.34;10410842;28;20492;-26
2023/09/16 21:27:09;;;;;;;0.73;0.73;;;;;;;21.75;60.66;96535.91;10409578;28;20033;-26
2023/09/16 21:32:11;;;;;;;1.30;1.20;;;;;;;21.74;60.93;96535.06;10404556;28;20303;-26
2023/09/16 21:37:11;;;;;;;0.98;0.93;;;;;;;21.74;60.90;96540.16;10410315;28;20446;-27
2023/09/16 21:42:13;;;;;;;1.00;0.87;;;;;;;21.74;60.98;96540.16;10407555;28;20082;-25
2023/09/16 21:47:14;;;;;;;2.72;1.63;;;;;;;21.73;63.41;96541.03;10396398;28;20029;-27
2023/09/16 21:52:16;;;;;;;2.83;2.20;;;;;;;21.65;62.75;96534.38;10398939;28;20043;-26
2023/09/16 21:57:17;;;;;;;2.38;2.13;;;;;;;21.58;63.13;96543.78;10393152;28;20133;-24
2023/09/16 22:02:20;;;;;;;3.58;1.80;;;;;;;21.67;61.99;96542.84;10399178;28;20041;-27
2023/09/16 22:07:22;;;;;;;2.63;1.83;;;;;;;21.70;61.44;96545.31;10397394;28;20042;-26
2023/09/16 22:12:23;;;;;;;3.85;1.50;;;;;;;21.72;61.40;96549.53;10401613;28;20033;-26
2023/09/16 22:17:24;;;;;;;1.23;1.13;;;;;;;21.73;61.33;96548.66;10395635;28;20404;-26
2023/09/16 22:22:25;;;;;;;1.40;1.20;;;;;;;21.73;61.29;96538.47;10404631;28;20117;-26
2023/09/16 22:27:26;;;;;;;1.90;1.70;;;;;;;21.73;61.85;96538.47;10405246;28;20491;-26
2023/09/16 22:32:26;;;;;;;1.60;1.50;;;;;;;21.73;61.15;96540.19;10405041;28;20033;-26
2023/09/16 22:37:27;;;;;;;3.60;1.80;;;;;;;21.74;61.71;96545.25;10407963;28;20029;-26
2023/09/16 22:42:27;;;;;;;2.10;1.53;;;;;;;21.73;61.41;96537.66;10402447;28;20044;-26
2023/09/16 22:47:27;;;;;;;2.90;1.27;;;;;;;21.73;61.30;96538.47;10404160;28;20403;-25
2023/09/16 22:52:30;;;;;;;3.00;1.20;;;;;;;21.72;61.08;96541.88;10406478;28;20036;-26
2023/09/16 22:57:30;;;;;;;2.30;1.20;;;;;;;21.72;61.03;96541.88;10398494;28;20037;-26
2023/09/16 23:02:32;;;;;;;1.30;1.20;;;;;;;21.73;61.10;96542.75;10403488;28;20040;-26
2023/09/16 23:07:32;;;;;;;4.07;1.20;;;;;;;21.71;61.11;96535.13;10407533;28;20041;-26
2023/09/16 23:12:32;;;;;;;2.00;1.17;;;;;;;21.73;61.03;96528.28;10406135;28;20049;-26
2023/09/16 23:17:33;;;;;;;2.03;1.03;;;;;;;21.73;61.02;96532.56;10406009;28;20057;-26